createdAt,value
2023-01-17T00:02:17.477Z,99122.53
2023-01-17T00:05:03.623Z,99136.66
2023-01-17T00:11:09.949Z,99123.25
2023-01-17T00:13:36.822Z,99129.88
2023-01-17T00:16:03.884Z,99126.13
2023-01-17T00:18:30.832Z,99124.34
2023-01-17T00:21:17.988Z,99111.00
2023-01-17T00:24:03.691Z,99106.03
2023-01-17T00:26:31.594Z,99103.38
2023-01-17T00:28:58.411Z,99103.91
2023-01-17T00:31:25.372Z,99105.44
2023-01-17T00:33:52.332Z,99098.50
2023-01-17T00:36:19.193Z,99101.28
2023-01-17T00:38:46.017Z,99107.09
2023-01-17T00:41:14.680Z,99105.72
2023-01-17T00:44:00.578Z,99104.47
2023-01-17T00:46:46.343Z,99107.63
2023-01-17T00:49:31.768Z,99115.41
2023-01-17T00:52:17.401Z,99103.19
2023-01-17T00:55:03.217Z,99104.88
2023-01-17T00:57:49.359Z,99106.50
2023-01-17T01:00:37.529Z,99118.25
2023-01-17T01:03:30.319Z,99111.72
2023-01-17T01:06:16.061Z,99114.81
2023-01-17T01:09:01.393Z,99120.06
2023-01-17T01:11:46.987Z,99112.03
2023-01-17T01:14:32.440Z,99108.28
2023-01-17T01:17:18.036Z,99108.66
2023-01-17T01:20:03.761Z,99102.25
2023-01-17T01:22:49.561Z,99102.13
2023-01-17T01:25:34.919Z,99120.19
2023-01-17T01:28:29.878Z,99118.22
2023-01-17T01:31:19.695Z,99105.72
2023-01-17T01:33:46.813Z,99089.91
2023-01-17T01:36:14.008Z,99095.25
2023-01-17T01:38:40.886Z,99087.53
2023-01-17T01:41:07.945Z,99106.53
2023-01-17T01:43:48.449Z,99113.50
2023-01-17T01:46:21.066Z,99078.84
2023-01-17T01:49:00.836Z,99076.34
2023-01-17T01:51:39.201Z,99093.66
2023-01-17T01:54:16.912Z,99091.59
2023-01-17T01:56:44.740Z,99100.00
2023-01-17T01:59:13.357Z,99092.53
2023-01-17T02:01:40.443Z,99087.44
2023-01-17T02:04:10.198Z,99089.72
2023-01-17T02:06:40.760Z,99093.19
2023-01-17T02:09:09.515Z,99096.63
2023-01-17T02:11:37.672Z,99098.59
2023-01-17T02:14:05.188Z,99087.22
2023-01-17T02:16:34.203Z,99077.88
2023-01-17T02:19:42.716Z,99092.56
2023-01-17T02:22:21.475Z,99086.63
2023-01-17T02:25:05.427Z,99090.75
2023-01-17T02:27:55.152Z,99084.66
2023-01-17T02:30:50.992Z,99090.31
2023-01-17T02:33:39.203Z,99085.50
2023-01-17T02:36:13.956Z,99063.88
2023-01-17T02:38:46.777Z,99072.78
2023-01-17T02:41:38.166Z,99065.69
2023-01-17T02:44:05.764Z,99069.66
2023-01-17T02:46:32.799Z,99066.06
2023-01-17T02:49:00.656Z,99063.94
2023-01-17T02:51:59.562Z,99069.41
2023-01-17T02:54:27.744Z,99070.91
2023-01-17T02:57:12.752Z,99063.13
2023-01-17T03:00:04.731Z,99065.84
2023-01-17T03:02:47.352Z,99060.19
2023-01-17T03:05:20.439Z,99066.81
2023-01-17T03:07:48.462Z,99056.28
2023-01-17T03:10:16.915Z,99045.56
2023-01-17T03:12:44.130Z,99050.56
2023-01-17T03:15:13.017Z,99053.34
2023-01-17T03:17:43.225Z,99051.00
2023-01-17T03:20:10.834Z,99048.81
2023-01-17T03:22:37.833Z,99060.88
2023-01-17T03:25:05.968Z,99052.59
2023-01-17T03:27:33.740Z,99045.34
2023-01-17T03:30:01.915Z,99041.03
2023-01-17T03:32:30.624Z,99048.00
2023-01-17T03:34:57.676Z,99049.19
2023-01-17T03:37:24.807Z,99052.34
2023-01-17T03:39:51.749Z,99042.66
2023-01-17T03:42:18.934Z,99059.97
2023-01-17T03:44:51.021Z,99049.44
2023-01-17T03:47:18.078Z,99055.97
2023-01-17T03:49:45.035Z,99046.03
2023-01-17T03:52:12.105Z,99057.94
2023-01-17T03:54:39.021Z,99048.19
2023-01-17T03:57:06.054Z,99039.09
2023-01-17T03:59:34.113Z,99052.34
2023-01-17T04:02:01.704Z,99052.50
2023-01-17T04:04:28.863Z,99051.38
2023-01-17T04:06:57.471Z,99049.72
2023-01-17T04:09:24.395Z,99050.38
2023-01-17T04:11:53.425Z,99060.19
2023-01-17T04:14:21.501Z,99068.09
2023-01-17T04:16:48.507Z,99058.22
2023-01-17T04:19:15.450Z,99059.06
2023-01-17T04:21:42.538Z,99066.69
2023-01-17T04:24:09.493Z,99051.13
2023-01-17T04:26:36.776Z,99058.59
2023-01-17T04:29:04.240Z,99070.50
2023-01-17T04:31:31.665Z,99074.66
2023-01-17T04:33:58.905Z,99060.03
2023-01-17T04:36:26.052Z,99080.06
2023-01-17T04:38:53.030Z,99071.47
2023-01-17T04:41:20.172Z,99078.13
2023-01-17T04:43:47.187Z,99070.66
2023-01-17T04:46:14.386Z,99080.91
2023-01-17T04:48:41.445Z,99073.28
2023-01-17T04:51:08.597Z,99079.13
2023-01-17T04:53:40.622Z,99073.84
2023-01-17T04:56:07.937Z,99076.47
2023-01-17T04:58:34.935Z,99074.03
2023-01-17T05:01:07.150Z,99057.53
2023-01-17T05:03:48.524Z,99075.63
2023-01-17T05:06:17.885Z,99071.28
2023-01-17T05:08:44.891Z,99050.84
2023-01-17T05:11:11.908Z,99045.78
2023-01-17T05:13:41.160Z,99065.06
2023-01-17T05:16:08.447Z,99074.66
2023-01-17T05:18:35.739Z,99075.72
2023-01-17T05:21:05.853Z,99084.28
2023-01-17T05:23:33.184Z,99079.00
2023-01-17T05:26:00.419Z,99075.72
2023-01-17T05:28:27.665Z,99075.72
2023-01-17T05:30:54.629Z,99051.59
2023-01-17T05:33:22.710Z,99079.84
2023-01-17T05:35:49.744Z,99063.78
2023-01-17T05:38:17.112Z,99071.56
2023-01-17T05:40:44.074Z,99069.31
2023-01-17T05:43:11.241Z,99062.03
2023-01-17T05:45:38.245Z,99072.13
2023-01-17T05:48:05.524Z,99085.50
2023-01-17T05:50:37.089Z,99079.25
2023-01-17T05:53:09.070Z,99082.19
2023-01-17T05:55:36.980Z,99077.59
2023-01-17T05:58:04.462Z,99073.50
2023-01-17T06:00:32.020Z,99074.47
2023-01-17T06:03:01.119Z,99079.91
2023-01-17T06:05:31.272Z,99073.66
2023-01-17T06:08:00.501Z,99085.69
2023-01-17T06:10:27.552Z,99079.75
2023-01-17T06:13:06.889Z,99081.78
2023-01-17T06:15:35.803Z,99083.06
2023-01-17T06:18:06.975Z,99080.28
2023-01-17T06:20:35.407Z,99084.25
2023-01-17T06:23:11.666Z,99086.63
2023-01-17T06:25:38.716Z,99085.47
2023-01-17T06:28:07.286Z,99082.16
2023-01-17T06:30:40.739Z,99096.72
2023-01-17T06:33:07.708Z,99075.50
2023-01-17T06:35:34.683Z,99076.25
2023-01-17T06:38:01.777Z,99085.84
2023-01-17T06:40:32.378Z,99082.94
2023-01-17T06:43:01.767Z,99078.34
2023-01-17T06:45:30.023Z,99092.22
2023-01-17T06:47:59.296Z,99069.59
2023-01-17T06:50:26.689Z,99083.84
2023-01-17T06:52:59.881Z,99086.31
2023-01-17T06:55:30.558Z,99087.97
2023-01-17T06:57:59.642Z,99076.56
2023-01-17T07:00:27.699Z,99091.94
2023-01-17T07:02:54.754Z,99089.63
2023-01-17T07:05:22.056Z,99093.63
2023-01-17T07:07:52.070Z,99101.84
2023-01-17T07:10:19.035Z,99090.63
2023-01-17T07:12:46.550Z,99086.31
2023-01-17T07:15:16.425Z,99086.06
2023-01-17T07:17:43.333Z,99086.25
2023-01-17T07:20:10.739Z,99083.59
2023-01-17T07:22:40.742Z,99092.88
2023-01-17T07:25:10.821Z,99089.25
2023-01-17T07:27:37.813Z,99107.63
2023-01-17T07:30:05.255Z,99087.50
2023-01-17T07:32:32.258Z,99095.78
2023-01-17T07:34:59.272Z,99086.19
2023-01-17T07:37:28.774Z,99099.88
2023-01-17T07:39:55.832Z,99070.50
2023-01-17T07:42:24.165Z,99094.47
2023-01-17T07:44:51.635Z,99095.13
2023-01-17T07:47:18.605Z,99099.09
2023-01-17T07:49:45.644Z,99087.75
2023-01-17T07:52:12.889Z,99096.16
2023-01-17T07:54:39.986Z,99096.97
2023-01-17T07:57:11.902Z,99105.94
2023-01-17T07:59:38.906Z,99097.00
2023-01-17T08:02:06.487Z,99107.28
2023-01-17T08:04:38.657Z,99108.44
2023-01-17T08:07:12.920Z,99114.22
2023-01-17T08:09:41.149Z,99106.16
2023-01-17T08:12:08.554Z,99104.19
2023-01-17T08:14:35.992Z,99115.94
2023-01-17T08:17:14.667Z,99096.28
2023-01-17T08:19:41.751Z,99110.47
2023-01-17T08:22:09.037Z,99114.31
2023-01-17T08:24:36.021Z,99102.25
2023-01-17T08:27:02.980Z,99112.50
2023-01-17T08:29:30.192Z,99100.13
2023-01-17T08:31:57.310Z,99108.25
2023-01-17T08:34:24.480Z,99100.66
2023-01-17T08:36:53.002Z,99121.31
2023-01-17T08:39:20.794Z,99105.47
2023-01-17T08:41:47.727Z,99100.66
2023-01-17T08:44:15.954Z,99095.69
2023-01-17T08:46:44.373Z,99107.63
2023-01-17T08:49:12.926Z,99101.53
2023-01-17T08:51:40.349Z,99098.06
2023-01-17T08:54:15.615Z,99102.03
2023-01-17T08:56:47.054Z,99108.81
2023-01-17T08:59:14.196Z,99093.41
2023-01-17T09:01:42.084Z,99089.59
2023-01-17T09:04:09.745Z,99095.75
2023-01-17T09:06:40.836Z,99093.13
2023-01-17T09:09:08.890Z,99082.88
2023-01-17T09:11:38.244Z,99089.47
2023-01-17T09:14:05.294Z,99082.53
2023-01-17T09:16:32.710Z,99081.72
2023-01-17T09:18:59.760Z,99082.00
2023-01-17T09:21:27.038Z,99081.38
2023-01-17T09:23:58.350Z,99078.06
2023-01-17T09:26:28.213Z,99084.19
2023-01-17T09:28:55.854Z,99071.25
2023-01-17T09:31:24.072Z,99077.75
2023-01-17T09:33:52.005Z,99092.28
2023-01-17T09:36:19.108Z,99084.34
2023-01-17T09:38:46.751Z,99078.91
2023-01-17T09:41:29.579Z,99085.81
2023-01-17T09:44:05.718Z,99085.53
2023-01-17T09:46:38.180Z,99081.38
2023-01-17T09:49:14.522Z,99075.91
2023-01-17T09:51:44.988Z,99093.94
2023-01-17T09:54:25.639Z,99090.31
2023-01-17T09:57:09.369Z,99073.25
2023-01-17T09:59:45.631Z,99084.34
2023-01-17T10:02:19.177Z,99086.19
2023-01-17T10:05:18.484Z,99084.16
2023-01-17T10:08:07.355Z,99082.53
2023-01-17T10:10:43.074Z,99083.19
2023-01-17T10:13:13.149Z,99086.19
2023-01-17T10:15:52.598Z,99081.84
2023-01-17T10:18:38.405Z,99086.50
2023-01-17T10:21:17.221Z,99090.47
2023-01-17T10:23:53.741Z,99077.72
2023-01-17T10:26:29.833Z,99075.41
2023-01-17T10:29:01.909Z,99070.09
2023-01-17T10:31:34.187Z,99074.72
2023-01-17T10:34:09.273Z,99074.53
2023-01-17T10:36:40.611Z,99066.91
2023-01-17T10:39:26.881Z,99069.88
2023-01-17T10:42:07.092Z,99076.00
2023-01-17T10:44:58.352Z,99080.63
2023-01-17T10:47:27.975Z,99054.13
2023-01-17T10:49:58.694Z,99064.09
2023-01-17T10:52:47.244Z,99062.44
2023-01-17T10:55:24.484Z,99060.44
2023-01-17T10:57:53.453Z,99073.53
2023-01-17T11:00:51.552Z,99070.53
2023-01-17T11:03:27.983Z,99065.91
2023-01-17T11:06:23.901Z,99073.81
2023-01-17T11:09:02.172Z,99066.34
2023-01-17T11:11:34.620Z,99061.84
2023-01-17T11:14:06.664Z,99060.03
2023-01-17T11:16:39.651Z,99065.97
2023-01-17T11:19:22.054Z,99063.81
2023-01-17T11:22:14.155Z,99061.63
2023-01-17T11:24:52.679Z,99058.97
2023-01-17T11:27:34.156Z,99052.84
2023-01-17T11:30:21.348Z,99050.19
2023-01-17T11:32:56.956Z,99037.69
2023-01-17T11:35:38.282Z,99063.66
2023-01-17T11:38:07.338Z,99054.06
2023-01-17T11:40:41.632Z,99052.38
2023-01-17T11:43:15.724Z,99049.38
2023-01-17T11:45:47.135Z,99049.03
2023-01-17T11:48:31.116Z,99061.41
2023-01-17T11:50:59.625Z,99061.78
2023-01-17T11:53:35.353Z,99055.19
2023-01-17T11:56:08.927Z,99046.06
2023-01-17T11:58:41.903Z,99067.72
2023-01-17T12:01:27.963Z,99061.09
2023-01-17T12:04:25.521Z,99067.88
2023-01-17T12:07:31.806Z,99069.38
2023-01-17T12:10:25.773Z,99068.88
2023-01-17T12:13:32.932Z,99070.69
2023-01-17T12:16:53.825Z,99071.34
2023-01-17T12:19:41.432Z,99070.53
2023-01-17T12:22:38.136Z,99062.28
2023-01-17T12:25:24.392Z,99077.00
2023-01-17T12:28:16.776Z,99062.22
2023-01-17T12:31:06.727Z,99069.00
2023-01-17T12:33:51.619Z,99065.00
2023-01-17T12:36:24.214Z,99071.16
2023-01-17T12:38:57.670Z,99045.59
2023-01-17T12:41:31.169Z,99052.75
2023-01-17T12:44:00.213Z,99063.34
2023-01-17T12:46:31.108Z,99058.19
2023-01-17T12:49:24.996Z,99060.00
2023-01-17T12:51:58.336Z,99058.72
2023-01-17T12:54:46.338Z,99061.81
2023-01-17T12:57:25.148Z,99052.59
2023-01-17T13:00:07.321Z,99046.44
2023-01-17T13:03:10.292Z,99052.59
2023-01-17T13:05:48.116Z,99047.44
2023-01-17T13:08:25.154Z,99046.25
2023-01-17T13:11:19.225Z,99058.81
2023-01-17T13:13:47.732Z,99032.88
2023-01-17T13:16:47.607Z,99057.69
2023-01-17T13:19:29.895Z,99061.66
2023-01-17T13:22:01.345Z,99065.59
2023-01-17T13:24:33.357Z,99051.06
2023-01-17T13:27:09.205Z,99044.28
2023-01-17T13:30:04.011Z,99064.16
2023-01-17T13:32:54.676Z,99064.53
2023-01-17T13:35:43.761Z,99050.13
2023-01-17T13:38:21.923Z,99046.66
2023-01-17T13:41:01.699Z,99047.66
2023-01-17T13:43:41.349Z,99036.38
2023-01-17T13:46:11.305Z,99038.56
2023-01-17T13:48:40.874Z,99031.63
2023-01-17T13:51:11.762Z,99041.69
2023-01-17T13:53:40.589Z,99043.72
2023-01-17T13:56:19.867Z,99037.75
2023-01-17T13:58:59.474Z,99029.50
2023-01-17T14:01:35.026Z,99030.00
2023-01-17T14:04:06.234Z,99030.97
2023-01-17T14:06:36.448Z,99017.91
2023-01-17T14:09:20.130Z,99028.31
2023-01-17T14:12:00.898Z,99016.44
2023-01-17T14:15:14.037Z,99023.38
2023-01-17T14:17:49.634Z,99028.03
2023-01-17T14:20:17.667Z,99033.66
2023-01-17T14:22:53.783Z,99021.78
2023-01-17T14:25:31.437Z,99030.72
2023-01-17T14:28:04.217Z,99026.88
2023-01-17T14:30:36.768Z,99037.16
2023-01-17T14:33:11.213Z,99039.31
2023-01-17T14:35:43.609Z,99033.38
2023-01-17T14:38:29.779Z,99027.94
2023-01-17T14:41:11.953Z,99030.09
2023-01-17T14:43:41.984Z,99017.88
2023-01-17T14:46:16.772Z,99026.47
2023-01-17T14:48:46.478Z,99024.13
2023-01-17T14:51:22.350Z,99009.94
2023-01-17T14:53:58.559Z,99035.38
2023-01-17T14:56:27.408Z,99022.44
2023-01-17T15:02:15.469Z,99012.47
2023-01-17T15:04:54.007Z,99014.75
2023-01-17T15:07:21.129Z,99004.00
2023-01-17T15:09:49.065Z,99015.72
2023-01-17T15:12:18.137Z,98971.44
2023-01-17T15:14:46.782Z,98996.00
2023-01-17T15:17:25.002Z,99008.06
2023-01-17T15:20:01.662Z,99009.53
2023-01-17T15:22:30.724Z,98996.84
2023-01-17T15:24:58.704Z,99020.81
2023-01-17T15:27:26.416Z,99007.25
2023-01-17T15:29:54.449Z,99008.75
2023-01-17T15:32:24.663Z,99009.59
2023-01-17T15:34:52.181Z,99013.59
2023-01-17T15:37:22.461Z,99019.09
2023-01-17T15:39:50.156Z,99023.72
2023-01-17T15:42:27.955Z,99030.34
2023-01-17T15:47:39.715Z,99027.38
2023-01-17T15:50:26.692Z,99019.75
2023-01-17T15:53:05.027Z,99031.34
2023-01-17T15:55:36.048Z,99017.41
2023-01-17T15:58:04.113Z,99033.97
2023-01-17T16:00:39.390Z,99037.25
2023-01-17T16:03:31.379Z,99030.31
2023-01-17T16:06:00.473Z,99025.81
2023-01-17T16:08:28.741Z,99023.84
2023-01-17T16:11:02.254Z,98994.53
2023-01-17T16:13:38.738Z,99008.78
2023-01-17T16:16:23.051Z,99053.81
2023-01-17T16:18:58.252Z,99017.78
2023-01-17T16:24:11.336Z,99023.56
2023-01-17T16:26:38.310Z,99034.63
2023-01-17T16:29:05.261Z,99020.38
2023-01-17T16:31:33.829Z,99040.75
2023-01-17T16:34:01.550Z,99030.88
2023-01-17T16:36:28.954Z,99045.44
2023-01-17T16:38:55.975Z,99020.00
2023-01-17T16:41:25.988Z,99037.69
2023-01-17T16:43:58.858Z,99023.78
2023-01-17T16:46:28.819Z,99030.91
2023-01-17T16:48:56.169Z,99042.53
2023-01-17T16:51:25.269Z,99025.28
2023-01-17T16:53:58.622Z,99039.88
2023-01-17T16:56:26.036Z,99028.63
2023-01-17T16:58:54.683Z,99029.97
2023-01-17T17:01:25.626Z,99026.00
2023-01-17T17:03:53.682Z,99014.56
2023-01-17T17:06:22.089Z,99024.19
2023-01-17T17:08:52.565Z,98998.34
2023-01-17T17:11:22.202Z,99012.44
2023-01-17T17:13:50.218Z,99027.31
2023-01-17T17:16:19.809Z,99044.06
2023-01-17T17:18:55.291Z,99033.31
2023-01-17T17:21:22.755Z,99039.44
2023-01-17T17:23:57.101Z,99029.00
2023-01-17T17:26:32.220Z,99022.22
2023-01-17T17:28:59.516Z,99037.78
2023-01-17T17:31:27.454Z,99034.63
2023-01-17T17:33:58.727Z,99030.16
2023-01-17T17:36:26.038Z,99027.84
2023-01-17T17:38:57.000Z,99027.84
2023-01-17T17:41:49.565Z,99050.19
2023-01-17T17:44:17.363Z,99032.50
2023-01-17T17:46:45.810Z,99033.97
2023-01-17T17:49:12.936Z,99040.94
2023-01-17T17:51:40.576Z,99038.75
2023-01-17T17:54:10.501Z,99033.31
2023-01-17T17:56:38.718Z,99044.06
2023-01-17T17:59:08.282Z,99031.00
2023-01-17T18:01:38.407Z,99038.44
2023-01-17T18:04:07.662Z,99031.63
2023-01-17T18:06:35.615Z,99025.03
2023-01-17T18:09:03.430Z,99047.06
2023-01-17T18:11:30.861Z,99035.13
2023-01-17T18:14:01.075Z,99017.63
2023-01-17T18:16:33.151Z,99033.81
2023-01-17T18:19:03.864Z,99044.25
2023-01-17T18:21:34.511Z,99056.81
2023-01-17T18:24:14.745Z,99043.09
2023-01-17T18:26:47.760Z,99039.44
2023-01-17T18:29:18.377Z,99028.84
2023-01-17T18:31:47.143Z,99044.06
2023-01-17T18:34:17.586Z,99054.50
2023-01-17T18:36:53.074Z,99058.63
2023-01-17T18:39:24.892Z,99041.09
2023-01-17T18:41:54.168Z,99038.09
2023-01-17T18:44:22.552Z,99053.69
2023-01-17T18:46:54.131Z,99033.47
2023-01-17T18:49:21.707Z,99048.38
2023-01-17T18:51:51.474Z,99019.78
2023-01-17T18:54:19.945Z,99029.19
2023-01-17T18:56:47.185Z,99028.16
2023-01-17T18:59:16.197Z,99036.13
2023-01-17T19:01:43.971Z,99000.88
2023-01-17T19:04:16.159Z,99017.25
2023-01-17T19:06:46.169Z,99017.13
2023-01-17T19:09:14.583Z,99009.69
2023-01-17T19:11:44.600Z,98991.81
2023-01-17T19:14:12.859Z,99004.69
2023-01-17T19:16:41.779Z,99018.09
2023-01-17T19:19:12.065Z,99025.88
2023-01-17T19:21:39.730Z,99044.78
2023-01-17T19:24:07.699Z,99038.84
2023-01-17T19:26:35.112Z,99038.16
2023-01-17T19:29:05.393Z,99043.44
2023-01-17T19:31:37.373Z,99016.63
2023-01-17T19:34:04.812Z,99051.56
2023-01-17T19:36:34.621Z,99034.69
2023-01-17T19:39:05.389Z,99024.44
2023-01-17T19:41:35.171Z,99011.69
2023-01-17T19:44:07.761Z,99005.72
2023-01-17T19:46:35.831Z,99053.75
2023-01-17T19:49:04.369Z,99039.16
2023-01-17T19:51:31.494Z,99023.28
2023-01-17T19:54:02.978Z,99023.63
2023-01-17T19:56:30.530Z,99018.00
2023-01-17T19:59:01.384Z,99027.44
2023-01-17T20:01:31.394Z,99037.00
2023-01-17T20:03:59.262Z,99011.06
2023-01-17T20:06:29.200Z,99028.94
2023-01-17T20:08:57.031Z,99045.13
2023-01-17T20:11:25.464Z,99035.88
2023-01-17T20:13:56.459Z,99032.91
2023-01-17T20:16:25.109Z,99032.91
2023-01-17T20:18:52.751Z,99045.97
2023-01-17T20:21:22.311Z,99047.13
2023-01-17T20:23:54.053Z,99046.28
2023-01-17T20:26:23.635Z,99050.75
2023-01-17T20:28:51.796Z,99042.16
2023-01-17T20:31:25.312Z,99055.56
2023-01-17T20:33:56.576Z,99040.50
2023-01-17T20:36:25.448Z,99044.97
2023-01-17T20:38:54.543Z,99044.16
2023-01-17T20:41:49.157Z,99051.44
2023-01-17T20:44:16.716Z,99023.28
2023-01-17T20:46:43.965Z,99040.66
2023-01-17T20:49:16.875Z,99030.91
2023-01-17T20:51:45.808Z,99038.84
2023-01-17T20:54:14.771Z,99050.44
2023-01-17T20:56:42.541Z,99063.34
2023-01-17T20:59:14.653Z,99064.16
2023-01-17T21:01:46.154Z,99059.03
2023-01-17T21:04:15.129Z,99054.38
2023-01-17T21:06:43.803Z,99042.97
2023-01-17T21:09:38.025Z,99073.09
2023-01-17T21:12:08.484Z,99065.97
2023-01-17T21:14:37.731Z,99044.81
2023-01-17T21:17:04.881Z,99061.50
2023-01-17T21:19:36.752Z,99014.72
2023-01-17T21:22:05.627Z,99043.47
2023-01-17T21:24:32.681Z,99063.97
2023-01-17T21:27:00.685Z,99059.34
2023-01-17T21:29:29.357Z,99065.97
2023-01-17T21:31:56.570Z,99059.00
2023-01-17T21:34:27.724Z,99050.25
2023-01-17T21:36:54.924Z,99041.66
2023-01-17T21:39:21.917Z,99047.75
2023-01-17T21:41:50.881Z,99053.06
2023-01-17T21:44:22.334Z,99040.16
2023-01-17T21:46:53.626Z,99023.81
2023-01-17T21:49:22.921Z,99059.00
2023-01-17T21:51:52.905Z,99054.38
2023-01-17T21:54:40.611Z,99058.03
2023-01-17T21:57:26.629Z,99041.50
2023-01-17T21:59:53.671Z,99042.16
2023-01-17T22:02:20.921Z,99053.38
2023-01-17T22:04:48.119Z,99035.19
2023-01-17T22:07:15.069Z,99011.06
2023-01-17T22:09:42.091Z,99014.38
2023-01-17T22:12:09.148Z,98999.81
2023-01-17T22:14:37.574Z,99001.16
2023-01-17T22:17:04.492Z,98995.19
2023-01-17T22:19:31.390Z,99004.13
2023-01-17T22:21:58.580Z,99005.44
2023-01-17T22:24:25.482Z,99007.09
2023-01-17T22:26:52.450Z,99010.09
2023-01-17T22:29:19.439Z,99017.03
2023-01-17T22:31:46.452Z,99008.41
2023-01-17T22:34:14.144Z,98994.53
2023-01-17T22:36:41.843Z,99004.47
2023-01-17T22:39:09.968Z,98999.16
2023-01-17T22:41:38.355Z,98988.25
2023-01-17T22:44:05.614Z,99017.84
2023-01-17T22:46:35.592Z,99007.09
2023-01-17T22:49:03.027Z,99007.09
2023-01-17T22:51:30.213Z,98989.41
2023-01-17T22:53:59.145Z,98992.88
2023-01-17T22:56:31.914Z,98987.59
2023-01-17T22:59:00.890Z,98985.75
2023-01-17T23:01:32.963Z,99007.78
2023-01-17T23:04:02.757Z,98989.25
2023-01-17T23:06:38.368Z,99005.44
2023-01-17T23:09:08.380Z,99019.81
2023-01-17T23:11:41.173Z,99007.09
2023-01-17T23:14:17.025Z,98999.16
2023-01-17T23:17:14.940Z,99016.88
2023-01-17T23:19:42.853Z,98991.22
2023-01-17T23:22:19.471Z,99012.72
2023-01-17T23:24:53.585Z,99017.69
2023-01-17T23:27:53.409Z,98996.34
2023-01-17T23:30:34.697Z,99029.91
2023-01-17T23:33:10.123Z,99012.41
2023-01-17T23:35:42.114Z,99022.97
2023-01-17T23:38:29.808Z,99009.91
2023-01-17T23:41:20.406Z,99001.00
2023-01-17T23:43:55.215Z,99000.81
2023-01-17T23:46:22.689Z,99013.22
2023-01-17T23:48:49.913Z,99012.53
2023-01-17T23:51:16.995Z,99006.44
2023-01-17T23:53:46.842Z,98988.44
2023-01-17T23:56:19.062Z,99002.81
2023-01-17T23:58:46.119Z,99003.31
